sensor_id;sensor_type;location;lat;lon;timestamp;temperature;humidity
14079;DHT22;7115;50.150;8.568;2023-09-19T10:56:46;23.40;93.30
14079;DHT22;7115;50.150;8.568;2023-09-19T10:59:16;23.60;92.90
14079;DHT22;7115;50.150;8.568;2023-09-19T11:01:46;23.60;92.10
14079;DHT22;7115;50.150;8.568;2023-09-19T11:04:22;23.50;91.70
14079;DHT22;7115;50.150;8.568;2023-09-19T11:07:02;23.50;91.40
14079;DHT22;7115;50.150;8.568;2023-09-19T11:09:47;23.50;91.00
14079;DHT22;7115;50.150;8.568;2023-09-19T11:12:50;23.60;90.90
14079;DHT22;7115;50.150;8.568;2023-09-19T11:18:55;23.30;90.80
14079;DHT22;7115;50.150;8.568;2023-09-19T11:21:53;23.10;90.90
14079;DHT22;7115;50.150;8.568;2023-09-19T11:24:28;23.30;90.90
14079;DHT22;7115;50.150;8.568;2023-09-19T11:27:15;23.70;91.00
14079;DHT22;7115;50.150;8.568;2023-09-19T11:29:45;24.10;89.80
14079;DHT22;7115;50.150;8.568;2023-09-19T11:32:13;24.30;89.40
14079;DHT22;7115;50.150;8.568;2023-09-19T11:34:45;24.50;88.40
14079;DHT22;7115;50.150;8.568;2023-09-19T11:40:34;24.40;86.70
14079;DHT22;7115;50.150;8.568;2023-09-19T11:43:32;24.20;87.10
14079;DHT22;7115;50.150;8.568;2023-09-19T11:46:06;24.00;87.10
14079;DHT22;7115;50.150;8.568;2023-09-19T11:48:34;23.90;87.40
14079;DHT22;7115;50.150;8.568;2023-09-19T11:51:19;23.80;87.30
14079;DHT22;7115;50.150;8.568;2023-09-19T11:53:49;23.70;87.20
14079;DHT22;7115;50.150;8.568;2023-09-19T11:56:18;23.80;87.30
14079;DHT22;7115;50.150;8.568;2023-09-19T11:58:45;23.90;86.60
14079;DHT22;7115;50.150;8.568;2023-09-19T12:01:15;24.00;86.50
14079;DHT22;7115;50.150;8.568;2023-09-19T12:03:53;24.10;85.80
14079;DHT22;7115;50.150;8.568;2023-09-19T12:06:21;24.20;85.00
14079;DHT22;7115;50.150;8.568;2023-09-19T12:08:49;24.30;84.40
14079;DHT22;7115;50.150;8.568;2023-09-19T12:11:17;24.10;83.70
14079;DHT22;7115;50.150;8.568;2023-09-19T12:13:47;24.20;83.80
14079;DHT22;7115;50.150;8.568;2023-09-19T12:16:18;24.30;83.60
14079;DHT22;7115;50.150;8.568;2023-09-19T12:18:45;24.40;83.60
14079;DHT22;7115;50.150;8.568;2023-09-19T12:21:28;24.60;82.90
14079;DHT22;7115;50.150;8.568;2023-09-19T12:24:04;24.50;82.40
14079;DHT22;7115;50.150;8.568;2023-09-19T12:26:39;24.40;82.00
14079;DHT22;7115;50.150;8.568;2023-09-19T12:29:12;24.10;81.80
14079;DHT22;7115;50.150;8.568;2023-09-19T12:31:49;23.80;82.10
14079;DHT22;7115;50.150;8.568;2023-09-19T12:34:21;23.50;82.40
14079;DHT22;7115;50.150;8.568;2023-09-19T12:36:49;23.30;83.20
14079;DHT22;7115;50.150;8.568;2023-09-19T12:39:30;23.30;83.40
14079;DHT22;7115;50.150;8.568;2023-09-19T12:41:57;23.60;83.00
14079;DHT22;7115;50.150;8.568;2023-09-19T12:44:25;23.80;82.40
14079;DHT22;7115;50.150;8.568;2023-09-19T12:46:53;23.90;81.30
14079;DHT22;7115;50.150;8.568;2023-09-19T12:49:21;23.70;80.50
14079;DHT22;7115;50.150;8.568;2023-09-19T12:51:49;23.50;81.10
14079;DHT22;7115;50.150;8.568;2023-09-19T12:54:21;23.20;81.00
14079;DHT22;7115;50.150;8.568;2023-09-19T12:56:48;23.10;81.50
14079;DHT22;7115;50.150;8.568;2023-09-19T12:59:17;23.10;82.00
14079;DHT22;7115;50.150;8.568;2023-09-19T13:01:44;23.10;82.10
14079;DHT22;7115;50.150;8.568;2023-09-19T13:04:18;23.20;82.10
14079;DHT22;7115;50.150;8.568;2023-09-19T13:06:47;23.30;82.10
14079;DHT22;7115;50.150;8.568;2023-09-19T13:09:17;23.50;82.20
14079;DHT22;7115;50.150;8.568;2023-09-19T13:11:44;23.60;81.30
14079;DHT22;7115;50.150;8.568;2023-09-19T13:14:15;23.50;80.70
14079;DHT22;7115;50.150;8.568;2023-09-19T13:16:56;23.50;80.50
14079;DHT22;7115;50.150;8.568;2023-09-19T13:19:39;23.60;79.60
14079;DHT22;7115;50.150;8.568;2023-09-19T13:22:38;23.50;79.40
14079;DHT22;7115;50.150;8.568;2023-09-19T13:25:07;23.50;79.80
14079;DHT22;7115;50.150;8.568;2023-09-19T13:27:34;23.50;80.00
14079;DHT22;7115;50.150;8.568;2023-09-19T13:30:01;23.50;80.00
14079;DHT22;7115;50.150;8.568;2023-09-19T13:32:28;23.60;79.80
14079;DHT22;7115;50.150;8.568;2023-09-19T13:34:57;23.50;79.70
14079;DHT22;7115;50.150;8.568;2023-09-19T13:37:24;23.50;79.90
14079;DHT22;7115;50.150;8.568;2023-09-19T13:39:53;23.40;79.70
14079;DHT22;7115;50.150;8.568;2023-09-19T13:42:21;23.20;79.90
14079;DHT22;7115;50.150;8.568;2023-09-19T13:44:48;23.00;80.10
14079;DHT22;7115;50.150;8.568;2023-09-19T13:47:15;22.90;80.50
14079;DHT22;7115;50.150;8.568;2023-09-19T13:49:43;22.80;81.20
14079;DHT22;7115;50.150;8.568;2023-09-19T13:52:12;22.80;81.40
14079;DHT22;7115;50.150;8.568;2023-09-19T13:54:39;22.80;81.60
14079;DHT22;7115;50.150;8.568;2023-09-19T13:57:06;22.90;81.80
14079;DHT22;7115;50.150;8.568;2023-09-19T13:59:36;23.00;81.80
14079;DHT22;7115;50.150;8.568;2023-09-19T14:02:03;23.10;81.80
14079;DHT22;7115;50.150;8.568;2023-09-19T14:04:32;23.20;81.60
14079;DHT22;7115;50.150;8.568;2023-09-19T14:07:03;23.40;81.40
14079;DHT22;7115;50.150;8.568;2023-09-19T14:09:32;23.40;81.00
14079;DHT22;7115;50.150;8.568;2023-09-19T14:11:59;23.40;80.90
14079;DHT22;7115;50.150;8.568;2023-09-19T14:14:26;23.40;80.70
14079;DHT22;7115;50.150;8.568;2023-09-19T14:16:53;23.40;80.70
14079;DHT22;7115;50.150;8.568;2023-09-19T14:19:20;23.40;80.70
14079;DHT22;7115;50.150;8.568;2023-09-19T14:21:47;23.40;80.60
14079;DHT22;7115;50.150;8.568;2023-09-19T14:24:16;23.40;80.70
14079;DHT22;7115;50.150;8.568;2023-09-19T14:26:45;23.40;80.60
14079;DHT22;7115;50.150;8.568;2023-09-19T14:29:13;23.20;80.30
14079;DHT22;7115;50.150;8.568;2023-09-19T14:31:41;23.10;80.10
14079;DHT22;7115;50.150;8.568;2023-09-19T14:34:08;22.90;80.30
14079;DHT22;7115;50.150;8.568;2023-09-19T14:36:38;22.90;80.40
14079;DHT22;7115;50.150;8.568;2023-09-19T14:39:05;22.90;80.90
14079;DHT22;7115;50.150;8.568;2023-09-19T14:41:32;22.80;80.70
14079;DHT22;7115;50.150;8.568;2023-09-19T14:44:02;22.80;80.80
14079;DHT22;7115;50.150;8.568;2023-09-19T14:46:29;22.80;80.70
14079;DHT22;7115;50.150;8.568;2023-09-19T14:48:57;22.70;80.50
14079;DHT22;7115;50.150;8.568;2023-09-19T14:51:29;22.60;80.30
14079;DHT22;7115;50.150;8.568;2023-09-19T14:53:56;22.70;80.50
14079;DHT22;7115;50.150;8.568;2023-09-19T14:56:24;22.70;80.60
14079;DHT22;7115;50.150;8.568;2023-09-19T14:58:52;22.80;80.50
14079;DHT22;7115;50.150;8.568;2023-09-19T15:01:20;22.80;80.30
14079;DHT22;7115;50.150;8.568;2023-09-19T15:03:49;22.80;80.20
14079;DHT22;7115;50.150;8.568;2023-09-19T15:06:16;22.80;80.20
14079;DHT22;7115;50.150;8.568;2023-09-19T15:08:45;22.80;80.20
14079;DHT22;7115;50.150;8.568;2023-09-19T15:11:14;22.80;80.30
14079;DHT22;7115;50.150;8.568;2023-09-19T15:13:44;22.70;80.40
14079;DHT22;7115;50.150;8.568;2023-09-19T15:16:12;22.60;80.60
14079;DHT22;7115;50.150;8.568;2023-09-19T15:18:42;22.50;80.80
14079;DHT22;7115;50.150;8.568;2023-09-19T15:21:10;22.40;80.80
14079;DHT22;7115;50.150;8.568;2023-09-19T15:23:38;22.30;80.80
14079;DHT22;7115;50.150;8.568;2023-09-19T15:26:06;22.30;81.00
14079;DHT22;7115;50.150;8.568;2023-09-19T15:28:35;22.20;81.20
14079;DHT22;7115;50.150;8.568;2023-09-19T15:31:04;22.20;81.60
14079;DHT22;7115;50.150;8.568;2023-09-19T15:33:33;22.20;81.80
14079;DHT22;7115;50.150;8.568;2023-09-19T15:36:03;22.20;82.00
14079;DHT22;7115;50.150;8.568;2023-09-19T15:38:31;22.30;82.30
14079;DHT22;7115;50.150;8.568;2023-09-19T15:41:01;22.40;82.70
14079;DHT22;7115;50.150;8.568;2023-09-19T15:43:30;22.30;82.80
14079;DHT22;7115;50.150;8.568;2023-09-19T15:46:00;22.30;83.00
14079;DHT22;7115;50.150;8.568;2023-09-19T15:48:28;22.30;83.00
14079;DHT22;7115;50.150;8.568;2023-09-19T15:50:56;22.20;82.90
14079;DHT22;7115;50.150;8.568;2023-09-19T15:53:41;22.20;83.10
14079;DHT22;7115;50.150;8.568;2023-09-19T15:56:08;22.10;83.20
14079;DHT22;7115;50.150;8.568;2023-09-19T15:58:36;22.10;83.40
14079;DHT22;7115;50.150;8.568;2023-09-19T16:01:06;22.20;83.60
14079;DHT22;7115;50.150;8.568;2023-09-19T16:03:36;22.20;83.60
14079;DHT22;7115;50.150;8.568;2023-09-19T16:06:08;22.20;83.70
14079;DHT22;7115;50.150;8.568;2023-09-19T16:08:39;22.20;83.70
14079;DHT22;7115;50.150;8.568;2023-09-19T16:11:07;22.30;84.00
14079;DHT22;7115;50.150;8.568;2023-09-19T16:13:34;22.30;84.20
14079;DHT22;7115;50.150;8.568;2023-09-19T16:16:01;22.30;84.30
14079;DHT22;7115;50.150;8.568;2023-09-19T16:18:28;22.30;84.50
14079;DHT22;7115;50.150;8.568;2023-09-19T16:21:01;22.30;84.70
14079;DHT22;7115;50.150;8.568;2023-09-19T16:23:27;22.30;84.90
14079;DHT22;7115;50.150;8.568;2023-09-19T16:26:02;22.30;85.00
14079;DHT22;7115;50.150;8.568;2023-09-19T16:28:31;22.30;85.00
14079;DHT22;7115;50.150;8.568;2023-09-19T16:30:58;22.20;85.10
14079;DHT22;7115;50.150;8.568;2023-09-19T16:33:26;22.20;85.30
14079;DHT22;7115;50.150;8.568;2023-09-19T16:35:53;22.10;85.60
14079;DHT22;7115;50.150;8.568;2023-09-19T16:38:20;22.10;85.90
14079;DHT22;7115;50.150;8.568;2023-09-19T16:40:54;22.00;86.10
14079;DHT22;7115;50.150;8.568;2023-09-19T16:43:24;22.00;86.40
14079;DHT22;7115;50.150;8.568;2023-09-19T16:45:54;22.00;86.60
14079;DHT22;7115;50.150;8.568;2023-09-19T16:48:22;22.00;86.90
14079;DHT22;7115;50.150;8.568;2023-09-19T16:50:49;21.90;87.10
14079;DHT22;7115;50.150;8.568;2023-09-19T16:53:17;21.90;87.40
14079;DHT22;7115;50.150;8.568;2023-09-19T16:55:45;21.90;87.60
14079;DHT22;7115;50.150;8.568;2023-09-19T16:58:13;21.90;87.80
14079;DHT22;7115;50.150;8.568;2023-09-19T17:00:41;21.80;88.00
14079;DHT22;7115;50.150;8.568;2023-09-19T17:03:10;21.80;88.10
14079;DHT22;7115;50.150;8.568;2023-09-19T17:05:40;21.80;88.30
14079;DHT22;7115;50.150;8.568;2023-09-19T17:08:07;21.80;88.50
14079;DHT22;7115;50.150;8.568;2023-09-19T17:10:34;21.70;88.70
14079;DHT22;7115;50.150;8.568;2023-09-19T17:13:01;21.70;89.10
14079;DHT22;7115;50.150;8.568;2023-09-19T17:15:30;21.70;89.30
14079;DHT22;7115;50.150;8.568;2023-09-19T17:18:00;21.60;89.40
14079;DHT22;7115;50.150;8.568;2023-09-19T17:20:27;21.60;89.60
14079;DHT22;7115;50.150;8.568;2023-09-19T17:22:54;21.60;89.80
14079;DHT22;7115;50.150;8.568;2023-09-19T17:25:21;21.50;90.00
14079;DHT22;7115;50.150;8.568;2023-09-19T17:27:48;21.50;90.10
14079;DHT22;7115;50.150;8.568;2023-09-19T17:30:15;21.50;90.20
14079;DHT22;7115;50.150;8.568;2023-09-19T17:32:42;21.40;90.30
14079;DHT22;7115;50.150;8.568;2023-09-19T17:35:11;21.40;90.40
14079;DHT22;7115;50.150;8.568;2023-09-19T17:37:38;21.40;90.50
14079;DHT22;7115;50.150;8.568;2023-09-19T17:40:07;21.30;90.60
14079;DHT22;7115;50.150;8.568;2023-09-19T17:42:37;21.30;90.70
14079;DHT22;7115;50.150;8.568;2023-09-19T17:45:05;21.30;90.80
14079;DHT22;7115;50.150;8.568;2023-09-19T17:47:32;21.20;91.00
14079;DHT22;7115;50.150;8.568;2023-09-19T17:49:59;21.20;91.10
14079;DHT22;7115;50.150;8.568;2023-09-19T17:52:29;21.10;91.20
14079;DHT22;7115;50.150;8.568;2023-09-19T17:54:56;21.10;91.40
14079;DHT22;7115;50.150;8.568;2023-09-19T17:57:25;21.00;91.50
14079;DHT22;7115;50.150;8.568;2023-09-19T17:59:52;21.00;91.60
14079;DHT22;7115;50.150;8.568;2023-09-19T18:02:19;20.80;91.70
14079;DHT22;7115;50.150;8.568;2023-09-19T18:04:48;20.90;91.90
14079;DHT22;7115;50.150;8.568;2023-09-19T18:07:15;20.90;92.10
14079;DHT22;7115;50.150;8.568;2023-09-19T18:09:43;20.90;92.20
14079;DHT22;7115;50.150;8.568;2023-09-19T18:12:10;20.70;92.30
14079;DHT22;7115;50.150;8.568;2023-09-19T18:14:38;20.80;92.50
14079;DHT22;7115;50.150;8.568;2023-09-19T18:17:05;20.80;92.60
14079;DHT22;7115;50.150;8.568;2023-09-19T18:19:33;20.80;92.70
14079;DHT22;7115;50.150;8.568;2023-09-19T18:21:59;20.80;92.80
14079;DHT22;7115;50.150;8.568;2023-09-19T18:24:30;20.70;92.90
14079;DHT22;7115;50.150;8.568;2023-09-19T18:26:59;20.70;93.00
14079;DHT22;7115;50.150;8.568;2023-09-19T18:29:27;20.70;93.20
14079;DHT22;7115;50.150;8.568;2023-09-19T18:31:56;20.60;93.20
14079;DHT22;7115;50.150;8.568;2023-09-19T18:34:24;20.60;93.30
14079;DHT22;7115;50.150;8.568;2023-09-19T18:36:52;20.50;93.30
14079;DHT22;7115;50.150;8.568;2023-09-19T18:39:21;20.50;93.50
14079;DHT22;7115;50.150;8.568;2023-09-19T18:41:50;20.50;93.60
14079;DHT22;7115;50.150;8.568;2023-09-19T18:44:19;20.50;93.70
14079;DHT22;7115;50.150;8.568;2023-09-19T18:46:46;20.40;93.80
14079;DHT22;7115;50.150;8.568;2023-09-19T18:49:14;20.40;93.90
14079;DHT22;7115;50.150;8.568;2023-09-19T18:51:43;20.40;93.90
14079;DHT22;7115;50.150;8.568;2023-09-19T18:54:10;20.30;94.00
14079;DHT22;7115;50.150;8.568;2023-09-19T18:56:40;20.30;94.10
14079;DHT22;7115;50.150;8.568;2023-09-19T18:59:08;20.30;94.20
14079;DHT22;7115;50.150;8.568;2023-09-19T19:01:38;20.20;94.30
14079;DHT22;7115;50.150;8.568;2023-09-19T19:04:05;20.20;94.40
14079;DHT22;7115;50.150;8.568;2023-09-19T19:06:32;20.20;94.40
14079;DHT22;7115;50.150;8.568;2023-09-19T19:08:59;20.20;94.50
14079;DHT22;7115;50.150;8.568;2023-09-19T19:11:26;20.20;94.60
14079;DHT22;7115;50.150;8.568;2023-09-19T19:13:56;20.20;94.70
14079;DHT22;7115;50.150;8.568;2023-09-19T19:16:23;20.20;94.80
14079;DHT22;7115;50.150;8.568;2023-09-19T19:18:54;20.10;94.80
14079;DHT22;7115;50.150;8.568;2023-09-19T19:21:21;20.10;94.90
14079;DHT22;7115;50.150;8.568;2023-09-19T19:23:50;20.10;94.90
14079;DHT22;7115;50.150;8.568;2023-09-19T19:26:21;20.10;95.00
14079;DHT22;7115;50.150;8.568;2023-09-19T19:28:49;20.00;95.10
14079;DHT22;7115;50.150;8.568;2023-09-19T19:31:18;20.00;95.10
14079;DHT22;7115;50.150;8.568;2023-09-19T19:33:45;20.00;95.20
14079;DHT22;7115;50.150;8.568;2023-09-19T19:36:13;20.00;95.30
14079;DHT22;7115;50.150;8.568;2023-09-19T19:38:45;20.00;95.40
14079;DHT22;7115;50.150;8.568;2023-09-19T19:41:12;19.90;95.50
14079;DHT22;7115;50.150;8.568;2023-09-19T19:43:40;19.90;95.60
14079;DHT22;7115;50.150;8.568;2023-09-19T19:46:08;19.90;95.70
14079;DHT22;7115;50.150;8.568;2023-09-19T19:48:37;19.90;95.80
14079;DHT22;7115;50.150;8.568;2023-09-19T19:51:05;19.80;95.80
14079;DHT22;7115;50.150;8.568;2023-09-19T19:53:38;19.70;95.90
14079;DHT22;7115;50.150;8.568;2023-09-19T19:56:05;19.70;96.00
14079;DHT22;7115;50.150;8.568;2023-09-19T19:58:34;19.60;96.10
14079;DHT22;7115;50.150;8.568;2023-09-19T20:01:02;19.60;96.20
14079;DHT22;7115;50.150;8.568;2023-09-19T20:03:33;19.60;96.30
14079;DHT22;7115;50.150;8.568;2023-09-19T20:06:01;19.50;96.30
14079;DHT22;7115;50.150;8.568;2023-09-19T20:08:29;19.50;96.40
14079;DHT22;7115;50.150;8.568;2023-09-19T20:11:01;19.50;96.60
14079;DHT22;7115;50.150;8.568;2023-09-19T20:13:30;19.50;96.70
14079;DHT22;7115;50.150;8.568;2023-09-19T20:15:58;19.50;96.80
14079;DHT22;7115;50.150;8.568;2023-09-19T20:18:26;19.50;96.80
14079;DHT22;7115;50.150;8.568;2023-09-19T20:20:54;19.50;96.90
14079;DHT22;7115;50.150;8.568;2023-09-19T20:23:21;19.50;97.00
14079;DHT22;7115;50.150;8.568;2023-09-19T20:25:48;19.50;97.10
14079;DHT22;7115;50.150;8.568;2023-09-19T20:28:16;19.50;97.10
14079;DHT22;7115;50.150;8.568;2023-09-19T20:30:44;19.50;97.20
14079;DHT22;7115;50.150;8.568;2023-09-19T20:33:11;19.50;97.20
14079;DHT22;7115;50.150;8.568;2023-09-19T20:35:39;19.40;97.30
14079;DHT22;7115;50.150;8.568;2023-09-19T20:38:07;19.40;97.40
14079;DHT22;7115;50.150;8.568;2023-09-19T20:40:34;19.40;97.40
14079;DHT22;7115;50.150;8.568;2023-09-19T20:43:03;19.40;97.40
14079;DHT22;7115;50.150;8.568;2023-09-19T20:45:32;19.40;97.40
14079;DHT22;7115;50.150;8.568;2023-09-19T20:48:05;19.40;97.80
14079;DHT22;7115;50.150;8.568;2023-09-19T20:50:33;19.40;97.60
14079;DHT22;7115;50.150;8.568;2023-09-19T20:53:00;19.40;97.60
14079;DHT22;7115;50.150;8.568;2023-09-19T20:55:27;19.30;97.70
14079;DHT22;7115;50.150;8.568;2023-09-19T20:57:54;19.30;97.80
14079;DHT22;7115;50.150;8.568;2023-09-19T21:00:21;19.30;97.80
14079;DHT22;7115;50.150;8.568;2023-09-19T21:02:51;19.20;97.80
14079;DHT22;7115;50.150;8.568;2023-09-19T21:05:18;19.20;97.80
14079;DHT22;7115;50.150;8.568;2023-09-19T21:07:47;19.10;97.80
14079;DHT22;7115;50.150;8.568;2023-09-19T21:10:14;19.10;97.80
14079;DHT22;7115;50.150;8.568;2023-09-19T21:12:41;19.10;97.90
14079;DHT22;7115;50.150;8.568;2023-09-19T21:15:08;19.10;98.30
14079;DHT22;7115;50.150;8.568;2023-09-19T21:17:35;19.10;98.00
14079;DHT22;7115;50.150;8.568;2023-09-19T21:20:11;19.00;98.00
14079;DHT22;7115;50.150;8.568;2023-09-19T21:22:45;19.00;98.00
14079;DHT22;7115;50.150;8.568;2023-09-19T21:25:12;18.90;98.10
14079;DHT22;7115;50.150;8.568;2023-09-19T21:27:38;18.90;98.20
14079;DHT22;7115;50.150;8.568;2023-09-19T21:30:06;18.90;98.20
14079;DHT22;7115;50.150;8.568;2023-09-19T21:32:33;18.80;98.30
14079;DHT22;7115;50.150;8.568;2023-09-19T21:35:03;18.90;98.40
14079;DHT22;7115;50.150;8.568;2023-09-19T21:37:33;18.80;98.50
14079;DHT22;7115;50.150;8.568;2023-09-19T21:40:00;18.80;98.60
14079;DHT22;7115;50.150;8.568;2023-09-19T21:42:27;18.80;98.70
14079;DHT22;7115;50.150;8.568;2023-09-19T21:44:54;18.70;98.80
14079;DHT22;7115;50.150;8.568;2023-09-19T21:47:21;18.70;98.90
14079;DHT22;7115;50.150;8.568;2023-09-19T21:49:48;18.70;99.00
14079;DHT22;7115;50.150;8.568;2023-09-19T21:52:15;18.60;99.10
14079;DHT22;7115;50.150;8.568;2023-09-19T21:54:43;18.50;99.20
14079;DHT22;7115;50.150;8.568;2023-09-19T21:57:10;18.40;99.40
14079;DHT22;7115;50.150;8.568;2023-09-19T21:59:37;18.40;99.50
14079;DHT22;7115;50.150;8.568;2023-09-19T22:02:04;18.30;99.60
14079;DHT22;7115;50.150;8.568;2023-09-19T22:04:33;18.20;99.70
14079;DHT22;7115;50.150;8.568;2023-09-19T22:07:00;18.20;99.90
14079;DHT22;7115;50.150;8.568;2023-09-19T22:09:28;18.10;99.90
14079;DHT22;7115;50.150;8.568;2023-09-19T22:11:56;18.10;99.90
14079;DHT22;7115;50.150;8.568;2023-09-19T22:14:25;18.00;99.90
14079;DHT22;7115;50.150;8.568;2023-09-19T22:16:56;18.00;99.90
14079;DHT22;7115;50.150;8.568;2023-09-19T22:19:27;18.00;99.90
14079;DHT22;7115;50.150;8.568;2023-09-19T22:21:56;18.00;99.90
14079;DHT22;7115;50.150;8.568;2023-09-19T22:24:22;18.00;99.90
14079;DHT22;7115;50.150;8.568;2023-09-19T22:26:52;17.90;99.90
14079;DHT22;7115;50.150;8.568;2023-09-19T22:29:20;17.90;99.90
14079;DHT22;7115;50.150;8.568;2023-09-19T22:31:48;17.90;99.90
14079;DHT22;7115;50.150;8.568;2023-09-19T22:34:15;17.90;99.90
14079;DHT22;7115;50.150;8.568;2023-09-19T22:36:42;17.80;99.90
14079;DHT22;7115;50.150;8.568;2023-09-19T22:39:12;17.80;99.90
14079;DHT22;7115;50.150;8.568;2023-09-19T22:41:43;17.80;99.90
14079;DHT22;7115;50.150;8.568;2023-09-19T22:44:12;17.80;99.90
14079;DHT22;7115;50.150;8.568;2023-09-19T22:46:41;17.80;99.90
14079;DHT22;7115;50.150;8.568;2023-09-19T22:49:09;17.80;99.90
14079;DHT22;7115;50.150;8.568;2023-09-19T22:51:44;17.70;99.90
14079;DHT22;7115;50.150;8.568;2023-09-19T22:54:12;17.80;99.90
14079;DHT22;7115;50.150;8.568;2023-09-19T22:56:39;17.80;99.90
14079;DHT22;7115;50.150;8.568;2023-09-19T22:59:07;17.80;99.90
14079;DHT22;7115;50.150;8.568;2023-09-19T23:01:34;17.80;99.90
14079;DHT22;7115;50.150;8.568;2023-09-19T23:04:04;17.70;99.90
14079;DHT22;7115;50.150;8.568;2023-09-19T23:06:43;17.70;99.90
14079;DHT22;7115;50.150;8.568;2023-09-19T23:09:14;17.70;99.90
14079;DHT22;7115;50.150;8.568;2023-09-19T23:11:43;17.70;99.90
14079;DHT22;7115;50.150;8.568;2023-09-19T23:14:10;17.70;99.90
14079;DHT22;7115;50.150;8.568;2023-09-19T23:16:37;17.60;99.90
14079;DHT22;7115;50.150;8.568;2023-09-19T23:19:10;17.70;99.90
14079;DHT22;7115;50.150;8.568;2023-09-19T23:22:09;17.60;99.90
14079;DHT22;7115;50.150;8.568;2023-09-19T23:24:49;17.60;99.90
14079;DHT22;7115;50.150;8.568;2023-09-19T23:27:22;17.70;99.90
14079;DHT22;7115;50.150;8.568;2023-09-19T23:29:54;17.60;99.90
14079;DHT22;7115;50.150;8.568;2023-09-19T23:32:24;17.70;99.90
14079;DHT22;7115;50.150;8.568;2023-09-19T23:34:53;17.60;99.90
14079;DHT22;7115;50.150;8.568;2023-09-19T23:37:21;17.70;99.90
14079;DHT22;7115;50.150;8.568;2023-09-19T23:39:47;17.70;99.90
14079;DHT22;7115;50.150;8.568;2023-09-19T23:42:16;17.70;99.90
14079;DHT22;7115;50.150;8.568;2023-09-19T23:44:43;17.80;99.90
14079;DHT22;7115;50.150;8.568;2023-09-19T23:47:15;17.80;99.90
14079;DHT22;7115;50.150;8.568;2023-09-19T23:49:45;17.80;99.90
14079;DHT22;7115;50.150;8.568;2023-09-19T23:52:16;17.80;99.90
14079;DHT22;7115;50.150;8.568;2023-09-19T23:54:44;17.70;99.90
14079;DHT22;7115;50.150;8.568;2023-09-19T23:57:13;17.70;99.90
14079;DHT22;7115;50.150;8.568;2023-09-19T23:59:40;17.70;99.90
